Time;durP1;ratioP1;P1;durP2;ratioP2;P2;SDS_P1;SDS_P2;PMS_P1;PMS_P2;Temp;Humidity;BMP_temperature;BMP_pressure;BME280_temperature;BME280_humidity;BME280_pressure;Samples;Min_cycle;Max_cycle;Signal;HPM_P1;HPM_P2
2023/05/21 00:02:13;;;;;;;1.77;1.60;;;19.10;40.30;;;;;;5075499;28;20165;-84
2023/05/21 00:04:40;;;;;;;2.22;1.67;;;19.10;40.40;;;;;;5091899;28;20180;-84
2023/05/21 00:07:07;;;;;;;1.88;1.60;;;19.10;40.40;;;;;;5092310;28;20171;-84
2023/05/21 00:09:33;;;;;;;1.35;1.25;;;19.10;40.40;;;;;;5075754;28;20240;-84
2023/05/21 00:12:01;;;;;;;1.67;1.58;;;19.10;40.40;;;;;;5075885;28;20161;-84
2023/05/21 00:14:26;;;;;;;1.42;1.33;;;19.10;40.40;;;;;;5076114;28;20161;-84
2023/05/21 00:16:52;;;;;;;1.73;1.60;;;19.10;40.40;;;;;;5109319;28;20168;-84
2023/05/21 00:19:19;;;;;;;1.60;1.48;;;19.10;40.40;;;;;;5075801;28;20157;-84
2023/05/21 00:21:45;;;;;;;1.63;1.50;;;19.10;40.40;;;;;;5078392;27;20161;-85
2023/05/21 00:24:10;;;;;;;1.52;1.25;;;19.10;40.40;;;;;;5099251;27;20651;-85
2023/05/21 00:26:37;;;;;;;1.50;1.40;;;19.00;40.40;;;;;;5114074;27;20223;-85
2023/05/21 00:29:03;;;;;;;1.63;1.50;;;19.00;40.50;;;;;;5149967;27;20154;-85
2023/05/21 00:31:29;;;;;;;1.60;1.50;;;19.00;40.50;;;;;;5098378;27;20179;-84
2023/05/21 00:33:57;;;;;;;1.60;1.45;;;19.10;40.50;;;;;;5115054;27;20152;-85
2023/05/21 00:36:22;;;;;;;2.30;1.75;;;19.10;40.60;;;;;;5115294;27;20156;-84
2023/05/21 00:38:50;;;;;;;1.65;1.55;;;19.00;40.50;;;;;;5131654;27;20170;-84
2023/05/21 00:41:18;;;;;;;1.63;1.50;;;19.00;40.60;;;;;;5115144;27;20599;-85
2023/05/21 00:43:44;;;;;;;1.45;1.35;;;19.10;40.50;;;;;;5098030;28;20171;-84
2023/05/21 00:46:15;;;;;;;1.70;1.40;;;19.00;40.50;;;;;;5097641;28;20187;-85
2023/05/21 00:48:43;;;;;;;1.65;1.55;;;19.10;40.60;;;;;;5098933;28;20180;-85
2023/05/21 00:51:09;;;;;;;1.65;1.52;;;19.10;40.70;;;;;;5098202;28;20181;-84
2023/05/21 00:53:35;;;;;;;1.60;1.50;;;19.00;40.60;;;;;;5097864;28;20156;-84
2023/05/21 00:56:01;;;;;;;1.73;1.63;;;19.10;40.70;;;;;;5114504;28;20184;-85
2023/05/21 00:58:28;;;;;;;1.65;1.55;;;19.10;40.70;;;;;;5114916;28;20156;-84
2023/05/21 01:00:55;;;;;;;1.65;1.45;;;19.10;40.70;;;;;;5097994;28;20159;-84
2023/05/21 01:03:25;;;;;;;1.60;1.50;;;19.00;40.60;;;;;;5131642;28;20174;-84
2023/05/21 01:05:52;;;;;;;2.03;1.83;;;19.00;40.60;;;;;;5115344;28;20361;-84
2023/05/21 01:08:22;;;;;;;2.00;1.80;;;19.00;40.70;;;;;;5115337;28;20155;-84
2023/05/21 01:10:48;;;;;;;1.55;1.42;;;19.00;40.70;;;;;;5115024;28;20207;-85
2023/05/21 01:13:15;;;;;;;1.80;1.65;;;19.00;40.70;;;;;;5115348;28;20151;-84
2023/05/21 01:15:42;;;;;;;1.60;1.42;;;19.00;40.70;;;;;;5114004;28;20168;-85
2023/05/21 01:18:08;;;;;;;1.45;1.35;;;19.00;40.80;;;;;;5097004;28;20178;-84
2023/05/21 01:20:34;;;;;;;1.90;1.70;;;19.00;40.70;;;;;;5097671;28;20608;-84
2023/05/21 01:22:59;;;;;;;1.60;1.48;;;19.00;40.80;;;;;;5082555;28;20220;-83
2023/05/21 01:25:25;;;;;;;1.85;1.65;;;19.00;40.80;;;;;;5074175;28;20659;-83
2023/05/21 01:27:54;;;;;;;2.00;1.80;;;19.00;40.80;;;;;;5089789;28;20208;-84
2023/05/21 01:30:21;;;;;;;1.83;1.60;;;19.00;40.90;;;;;;5107809;28;20161;-84
2023/05/21 01:32:53;;;;;;;1.65;1.55;;;19.00;40.90;;;;;;5074062;28;20168;-84
2023/05/21 01:35:21;;;;;;;1.50;1.40;;;19.00;40.80;;;;;;5074870;28;20544;-84
2023/05/21 01:38:18;;;;;;;1.73;1.52;;;19.00;40.90;;;;;;5093945;28;20225;-84
2023/05/21 01:40:53;;;;;;;1.83;1.50;;;19.00;40.90;;;;;;5110693;28;20240;-84
2023/05/21 01:43:21;;;;;;;1.42;1.33;;;19.00;40.90;;;;;;5094398;28;20180;-84
2023/05/21 01:45:48;;;;;;;1.67;1.50;;;19.00;40.90;;;;;;5094882;28;20188;-84
2023/05/21 01:48:16;;;;;;;1.63;1.50;;;19.00;40.90;;;;;;5077857;28;20168;-84
2023/05/21 01:50:45;;;;;;;1.75;1.65;;;19.00;41.00;;;;;;5094484;28;20140;-84
2023/05/21 01:53:13;;;;;;;1.70;1.60;;;19.00;41.00;;;;;;5094588;28;20160;-83
2023/05/21 01:55:40;;;;;;;1.85;1.52;;;19.00;41.00;;;;;;5078108;28;20161;-83
2023/05/21 01:58:07;;;;;;;1.77;1.67;;;18.90;41.00;;;;;;5078360;28;20172;-84
2023/05/21 02:00:33;;;;;;;2.60;1.48;;;19.00;41.00;;;;;;5078696;28;20238;-84
2023/05/21 02:02:59;;;;;;;1.80;1.70;;;18.90;41.00;;;;;;5089780;28;20607;-82
2023/05/21 02:05:25;;;;;;;1.70;1.60;;;19.00;41.00;;;;;;5071600;28;20201;-82
2023/05/21 02:07:51;;;;;;;1.63;1.48;;;19.00;41.00;;;;;;5088900;28;20168;-83
2023/05/21 02:10:17;;;;;;;1.70;1.60;;;19.00;41.00;;;;;;5071834;28;20187;-82
2023/05/21 02:12:43;;;;;;;1.70;1.60;;;18.90;41.00;;;;;;5105103;28;20161;-83
2023/05/21 02:15:09;;;;;;;2.00;1.73;;;18.90;41.00;;;;;;5071550;28;20161;-83
2023/05/21 02:17:37;;;;;;;2.00;1.60;;;19.00;41.10;;;;;;5088078;28;20549;-82
2023/05/21 02:20:10;;;;;;;1.80;1.60;;;18.90;41.00;;;;;;5104915;28;20149;-84
2023/05/21 02:22:39;;;;;;;1.60;1.50;;;18.90;41.00;;;;;;5089402;28;20208;-82
2023/05/21 02:25:06;;;;;;;1.92;1.70;;;18.90;41.10;;;;;;5086526;28;20218;-82
2023/05/21 02:27:34;;;;;;;1.80;1.40;;;18.90;41.10;;;;;;5106420;28;20149;-84
2023/05/21 02:30:00;;;;;;;1.50;1.40;;;18.90;41.00;;;;;;5104490;28;20145;-82
2023/05/21 02:32:26;;;;;;;1.83;1.65;;;19.00;41.10;;;;;;5071518;28;20184;-82
2023/05/21 02:34:52;;;;;;;1.60;1.50;;;18.90;41.10;;;;;;5088011;28;20172;-82
2023/05/21 02:37:18;;;;;;;1.92;1.73;;;18.90;41.10;;;;;;5087628;28;20214;-82
2023/05/21 02:39:44;;;;;;;1.60;1.50;;;18.90;41.20;;;;;;5087928;28;20155;-82
2023/05/21 02:42:13;;;;;;;1.60;1.45;;;18.90;41.20;;;;;;5103865;28;20172;-82
2023/05/21 02:44:39;;;;;;;1.63;1.50;;;18.90;41.20;;;;;;5104541;28;20192;-82
2023/05/21 02:47:05;;;;;;;1.88;1.50;;;18.90;41.20;;;;;;5087247;28;20203;-83
2023/05/21 02:49:31;;;;;;;2.58;1.55;;;18.90;41.20;;;;;;5087001;28;20145;-82
2023/05/21 02:51:56;;;;;;;1.70;1.60;;;18.90;41.30;;;;;;5104305;28;20248;-82
2023/05/21 02:54:22;;;;;;;1.90;1.70;;;18.90;41.30;;;;;;5087421;28;20149;-82
2023/05/21 02:56:48;;;;;;;1.70;1.50;;;18.90;41.30;;;;;;5103770;28;20171;-82
2023/05/21 02:59:13;;;;;;;1.60;1.50;;;18.90;41.20;;;;;;5105766;28;20557;-83
2023/05/21 03:01:40;;;;;;;1.60;1.50;;;18.90;41.30;;;;;;5070883;28;20161;-82
2023/05/21 03:04:05;;;;;;;1.80;1.70;;;18.90;41.30;;;;;;5086964;28;20156;-82
2023/05/21 03:06:31;;;;;;;1.73;1.63;;;18.90;41.30;;;;;;5069927;28;20196;-82
2023/05/21 03:08:57;;;;;;;2.00;1.75;;;18.90;41.30;;;;;;5104007;28;20175;-82
2023/05/21 03:11:22;;;;;;;1.55;1.45;;;18.90;41.30;;;;;;5105003;28;20525;-83
2023/05/21 03:13:49;;;;;;;1.45;1.35;;;18.90;41.30;;;;;;5086744;28;20146;-82
2023/05/21 03:16:16;;;;;;;1.45;1.35;;;18.90;41.40;;;;;;5087529;28;20167;-82
2023/05/21 03:18:42;;;;;;;1.88;1.58;;;18.90;41.40;;;;;;5069924;28;20530;-82
2023/05/21 03:21:08;;;;;;;1.88;1.73;;;18.90;41.40;;;;;;5102903;28;20172;-82
2023/05/21 03:23:35;;;;;;;2.03;1.73;;;18.90;41.40;;;;;;5103077;28;20212;-82
2023/05/21 03:26:01;;;;;;;1.50;1.40;;;18.90;41.40;;;;;;5086152;28;20205;-82
2023/05/21 03:28:26;;;;;;;1.50;1.40;;;18.90;41.40;;;;;;5086550;28;20164;-82
2023/05/21 03:30:52;;;;;;;1.60;1.50;;;18.80;41.30;;;;;;5102370;28;20234;-82
2023/05/21 03:33:19;;;;;;;1.90;1.70;;;18.80;41.30;;;;;;5086322;28;20551;-82
2023/05/21 03:35:45;;;;;;;2.00;1.80;;;18.90;41.40;;;;;;5086204;28;20168;-82
2023/05/21 03:38:11;;;;;;;1.70;1.60;;;18.80;41.40;;;;;;5102730;28;20161;-82
2023/05/21 03:40:38;;;;;;;1.92;1.73;;;18.90;42.10;;;;;;5069237;28;20509;-82
2023/05/21 03:43:04;;;;;;;1.70;1.58;;;18.90;41.40;;;;;;5102941;28;20206;-82
2023/05/21 03:45:31;;;;;;;1.50;1.40;;;18.90;41.50;;;;;;5102604;28;20255;-82
2023/05/21 03:47:57;;;;;;;1.65;1.55;;;18.80;41.40;;;;;;5104081;28;20175;-82
2023/05/21 03:50:22;;;;;;;1.77;1.60;;;18.90;41.60;;;;;;5103018;28;20500;-82
2023/05/21 03:52:48;;;;;;;1.67;1.58;;;18.90;41.50;;;;;;5103630;28;20191;-82
2023/05/21 03:55:15;;;;;;;1.50;1.40;;;18.90;41.60;;;;;;5085246;28;20236;-82
2023/05/21 03:57:40;;;;;;;1.63;1.52;;;18.90;41.60;;;;;;5069473;28;20618;-82
2023/05/21 04:00:07;;;;;;;1.90;1.70;;;18.90;41.50;;;;;;5103846;28;20157;-82
2023/05/21 04:02:33;;;;;;;1.50;1.40;;;18.80;41.40;;;;;;5085439;28;20150;-82
2023/05/21 04:05:02;;;;;;;2.03;1.63;;;18.90;41.50;;;;;;5086335;28;20643;-82
2023/05/21 04:07:28;;;;;;;1.48;1.38;;;18.90;41.50;;;;;;5104823;28;20240;-82
2023/05/21 04:09:55;;;;;;;1.60;1.50;;;18.90;41.50;;;;;;5068836;28;20161;-82
2023/05/21 04:12:21;;;;;;;1.75;1.63;;;18.90;41.50;;;;;;5085728;28;20324;-82
2023/05/21 04:14:47;;;;;;;1.60;1.50;;;18.90;41.60;;;;;;5102517;28;20566;-82
2023/05/21 04:17:12;;;;;;;1.83;1.65;;;18.90;41.60;;;;;;5085224;28;20527;-82
2023/05/21 04:19:38;;;;;;;2.20;1.67;;;18.90;41.60;;;;;;5102444;28;20564;-82
2023/05/21 04:22:04;;;;;;;2.08;1.75;;;18.90;41.70;;;;;;5085080;28;20212;-82
2023/05/21 04:24:30;;;;;;;1.70;1.60;;;18.80;41.60;;;;;;5102378;28;20169;-82
2023/05/21 04:27:00;;;;;;;1.58;1.48;;;18.80;41.60;;;;;;5067840;28;20642;-82
2023/05/21 04:29:28;;;;;;;1.58;1.38;;;18.90;41.70;;;;;;5085451;28;20202;-82
2023/05/21 04:31:54;;;;;;;1.80;1.70;;;18.80;41.60;;;;;;5068834;28;20553;-82
2023/05/21 04:34:21;;;;;;;1.30;1.20;;;18.80;41.60;;;;;;5102281;28;20674;-82
2023/05/21 04:36:48;;;;;;;2.00;1.70;;;18.80;41.60;;;;;;5067898;28;20169;-82
2023/05/21 04:39:15;;;;;;;2.10;1.80;;;18.80;41.70;;;;;;5085477;28;20147;-82
2023/05/21 04:41:40;;;;;;;1.75;1.65;;;18.90;41.70;;;;;;5068977;28;20168;-82
2023/05/21 04:44:06;;;;;;;1.63;1.52;;;18.80;41.70;;;;;;5102156;28;20156;-83
2023/05/21 04:46:33;;;;;;;1.55;1.45;;;18.80;41.80;;;;;;5086053;28;20192;-82
2023/05/21 04:49:01;;;;;;;1.77;1.50;;;18.80;41.70;;;;;;5085114;28;20149;-82
2023/05/21 04:51:28;;;;;;;1.48;1.38;;;18.80;41.70;;;;;;5084886;28;20141;-82
2023/05/21 04:53:54;;;;;;;1.42;1.33;;;18.80;41.70;;;;;;5085292;28;20160;-82
2023/05/21 04:56:25;;;;;;;1.88;1.55;;;18.80;41.70;;;;;;5085500;28;20603;-83
2023/05/21 04:58:51;;;;;;;2.75;1.60;;;18.80;41.70;;;;;;5086565;28;20155;-82
2023/05/21 05:01:17;;;;;;;1.83;1.40;;;18.80;41.80;;;;;;5085316;28;20278;-82
2023/05/21 05:03:44;;;;;;;1.65;1.55;;;18.80;41.80;;;;;;5085605;28;20164;-82
2023/05/21 05:06:10;;;;;;;1.95;1.60;;;18.80;41.80;;;;;;5081380;28;20193;-82
2023/05/21 05:08:36;;;;;;;1.58;1.48;;;18.80;41.80;;;;;;5087648;28;20248;-84
2023/05/21 05:11:01;;;;;;;1.70;1.58;;;18.80;41.90;;;;;;5098169;28;20168;-83
2023/05/21 05:13:28;;;;;;;1.75;1.50;;;18.80;41.80;;;;;;5091987;28;20168;-83
2023/05/21 05:15:56;;;;;;;1.42;1.33;;;18.80;41.90;;;;;;5085917;28;20153;-83
2023/05/21 05:18:22;;;;;;;1.60;1.50;;;18.80;41.80;;;;;;5068921;28;20203;-84
2023/05/21 05:20:47;;;;;;;1.55;1.45;;;18.80;41.80;;;;;;5087906;28;20169;-83
2023/05/21 05:23:14;;;;;;;1.75;1.52;;;18.80;41.90;;;;;;5100925;28;20713;-83
2023/05/21 05:25:40;;;;;;;1.70;1.60;;;18.80;41.80;;;;;;5113304;28;20220;-83
2023/05/21 05:28:05;;;;;;;1.60;1.50;;;18.80;41.90;;;;;;5079561;28;20158;-83
2023/05/21 05:30:31;;;;;;;1.52;1.42;;;18.80;41.90;;;;;;5101955;28;21942;-82
2023/05/21 05:32:57;;;;;;;1.50;1.40;;;18.80;41.90;;;;;;5097605;28;20164;-81
2023/05/21 05:35:23;;;;;;;1.75;1.60;;;18.80;42.00;;;;;;5079685;28;20176;-81
2023/05/21 05:37:48;;;;;;;1.70;1.50;;;18.70;41.90;;;;;;5062801;28;20175;-81
2023/05/21 05:40:14;;;;;;;1.70;1.60;;;18.80;41.90;;;;;;5079899;28;20637;-83
2023/05/21 05:42:41;;;;;;;1.92;1.60;;;18.80;41.90;;;;;;5080793;28;20164;-82
2023/05/21 05:45:07;;;;;;;1.60;1.50;;;18.80;42.00;;;;;;5096955;28;20199;-82
2023/05/21 05:47:33;;;;;;;1.70;1.60;;;18.80;42.00;;;;;;5081534;28;20169;-82
2023/05/21 05:49:59;;;;;;;1.70;1.60;;;18.80;41.90;;;;;;5099414;28;20157;-82
2023/05/21 05:52:26;;;;;;;1.52;1.38;;;18.80;41.90;;;;;;5098017;28;20669;-82
2023/05/21 05:54:51;;;;;;;2.03;1.63;;;18.90;42.00;;;;;;5099413;28;20225;-82
2023/05/21 05:57:17;;;;;;;2.03;1.50;;;18.90;42.00;;;;;;5098342;28;20674;-82
2023/05/21 05:59:42;;;;;;;1.73;1.48;;;18.90;41.90;;;;;;5080715;28;20641;-83
2023/05/21 06:02:08;;;;;;;1.48;1.38;;;18.90;41.90;;;;;;5098102;28;20511;-82
2023/05/21 06:04:34;;;;;;;1.60;1.45;;;18.90;41.80;;;;;;5065443;28;20267;-82
2023/05/21 06:06:59;;;;;;;1.73;1.63;;;18.90;41.80;;;;;;5100038;28;20492;-82
2023/05/21 06:09:25;;;;;;;1.73;1.63;;;19.00;41.80;;;;;;5099230;28;20173;-82
2023/05/21 06:11:51;;;;;;;2.13;1.67;;;19.00;41.70;;;;;;5099140;28;20259;-82
2023/05/21 06:14:16;;;;;;;1.77;1.50;;;19.00;41.80;;;;;;5100183;28;20515;-83
2023/05/21 06:16:42;;;;;;;2.05;1.60;;;19.00;41.70;;;;;;5100836;28;20156;-83
2023/05/21 06:19:08;;;;;;;1.67;1.50;;;19.00;41.70;;;;;;5099716;28;20164;-82
2023/05/21 06:21:34;;;;;;;1.65;1.55;;;19.00;41.70;;;;;;5100590;28;20639;-83
2023/05/21 06:24:00;;;;;;;1.70;1.60;;;19.10;41.70;;;;;;5085017;28;20253;-82
2023/05/21 06:26:26;;;;;;;1.90;1.60;;;19.10;41.70;;;;;;5086301;28;20578;-82
2023/05/21 06:28:52;;;;;;;2.22;1.42;;;19.10;41.70;;;;;;5119950;28;20190;-82
2023/05/21 06:31:21;;;;;;;1.60;1.50;;;19.00;41.70;;;;;;5120019;28;20178;-82
2023/05/21 06:33:48;;;;;;;1.63;1.50;;;19.00;41.70;;;;;;5120576;28;20148;-82
2023/05/21 06:36:15;;;;;;;1.90;1.60;;;19.10;41.70;;;;;;5118965;28;20524;-82
2023/05/21 06:38:41;;;;;;;1.52;1.42;;;19.00;41.70;;;;;;5099105;28;20522;-82
2023/05/21 06:41:07;;;;;;;1.75;1.55;;;19.10;41.70;;;;;;5094633;28;20544;-82
2023/05/21 06:43:33;;;;;;;1.77;1.65;;;19.00;41.70;;;;;;5095750;28;20222;-81
2023/05/21 06:45:58;;;;;;;1.67;1.40;;;19.10;41.70;;;;;;5094308;28;20192;-81
2023/05/21 06:48:24;;;;;;;1.75;1.60;;;19.00;41.70;;;;;;5094848;28;20183;-81
2023/05/21 06:50:50;;;;;;;1.92;1.42;;;19.10;41.80;;;;;;5094684;28;20165;-81
2023/05/21 06:53:15;;;;;;;2.13;1.50;;;19.10;41.90;;;;;;5094454;28;20543;-82
2023/05/21 06:55:43;;;;;;;1.77;1.60;;;19.10;42.10;;;;;;5098227;28;20594;-83
2023/05/21 06:58:10;;;;;;;2.47;1.60;;;19.00;42.20;;;;;;5093887;28;20164;-82
2023/05/21 07:00:36;;;;;;;1.90;1.50;;;19.10;42.90;;;;;;5115671;28;20519;-83
2023/05/21 07:03:01;;;;;;;2.67;1.67;;;19.00;43.00;;;;;;5114413;28;20247;-83
2023/05/21 07:05:27;;;;;;;2.30;1.60;;;19.20;43.20;;;;;;5114414;28;20202;-83
2023/05/21 07:07:52;;;;;;;2.28;1.63;;;19.20;42.90;;;;;;5115096;28;20163;-83
2023/05/21 07:10:18;;;;;;;1.50;1.40;;;19.20;42.60;;;;;;5115421;28;20614;-82
2023/05/21 07:12:44;;;;;;;1.85;1.50;;;19.40;42.60;;;;;;5115616;28;20184;-83
2023/05/21 07:15:10;;;;;;;1.95;1.70;;;19.40;42.10;;;;;;5115675;28;20614;-82
2023/05/21 07:17:36;;;;;;;2.50;1.67;;;19.40;42.10;;;;;;5116450;28;20209;-82
2023/05/21 07:20:05;;;;;;;1.45;1.35;;;19.50;42.10;;;;;;5114744;28;20202;-82
2023/05/21 07:22:30;;;;;;;2.60;1.80;;;19.40;41.90;;;;;;5114239;28;20251;-82
2023/05/21 07:24:56;;;;;;;1.77;1.67;;;19.50;41.70;;;;;;5114268;28;20223;-82
2023/05/21 07:27:22;;;;;;;1.98;1.50;;;19.40;41.70;;;;;;5114496;28;20207;-82
2023/05/21 07:29:47;;;;;;;2.60;1.40;;;19.40;41.70;;;;;;5115014;28;20282;-82
2023/05/21 07:32:13;;;;;;;1.85;1.60;;;19.50;41.70;;;;;;5114503;28;20613;-82
2023/05/21 07:34:38;;;;;;;1.60;1.50;;;19.40;41.70;;;;;;5114036;28;20164;-82
2023/05/21 07:37:04;;;;;;;1.73;1.33;;;19.50;41.80;;;;;;5115518;28;20175;-82
2023/05/21 07:39:30;;;;;;;2.58;1.50;;;19.50;41.70;;;;;;5115293;28;20518;-81
2023/05/21 07:41:56;;;;;;;1.63;1.52;;;19.50;41.50;;;;;;5114007;28;20522;-82
2023/05/21 07:44:23;;;;;;;1.52;1.38;;;19.30;41.60;;;;;;5113785;28;20167;-82
2023/05/21 07:46:48;;;;;;;1.40;1.30;;;19.30;42.00;;;;;;5113713;28;20190;-82
2023/05/21 07:49:15;;;;;;;2.80;1.50;;;19.20;42.30;;;;;;5114963;28;20152;-82
2023/05/21 07:51:42;;;;;;;1.70;1.40;;;19.20;42.80;;;;;;5115191;28;20579;-82
2023/05/21 07:54:08;;;;;;;1.42;1.33;;;19.30;42.80;;;;;;5123668;28;20178;-83
2023/05/21 07:56:36;;;;;;;1.60;1.30;;;19.20;42.70;;;;;;5103237;28;20161;-82
2023/05/21 07:59:02;;;;;;;1.65;1.55;;;19.30;43.00;;;;;;5119650;28;20166;-82
2023/05/21 08:01:28;;;;;;;1.20;1.10;;;19.30;42.70;;;;;;5100307;28;20167;-82
2023/05/21 08:03:55;;;;;;;2.67;1.50;;;19.20;43.00;;;;;;5101021;28;20556;-83
2023/05/21 08:06:23;;;;;;;1.60;1.50;;;19.20;42.90;;;;;;5118582;28;20204;-82
2023/05/21 08:08:48;;;;;;;1.50;1.40;;;19.20;43.00;;;;;;5119474;28;20148;-82
2023/05/21 08:11:14;;;;;;;2.28;1.80;;;19.30;43.00;;;;;;5100962;28;20637;-82
2023/05/21 08:13:47;;;;;;;1.42;1.33;;;19.30;43.00;;;;;;5121056;28;20152;-84
2023/05/21 08:16:13;;;;;;;1.50;1.27;;;19.30;43.00;;;;;;5127554;28;20152;-83
2023/05/21 08:18:40;;;;;;;1.35;1.25;;;19.30;42.90;;;;;;5108861;28;20645;-84
2023/05/21 08:21:07;;;;;;;1.48;1.35;;;19.30;43.20;;;;;;5109137;28;20179;-84
2023/05/21 08:23:33;;;;;;;1.50;1.40;;;19.20;43.20;;;;;;5144813;27;20283;-84
2023/05/21 08:26:01;;;;;;;1.35;1.25;;;19.20;43.10;;;;;;5124696;28;20183;-84
2023/05/21 08:28:28;;;;;;;2.33;1.20;;;19.30;43.30;;;;;;5088399;28;20156;-83
2023/05/21 08:30:55;;;;;;;1.98;1.50;;;19.30;43.30;;;;;;5089783;28;20195;-84
2023/05/21 08:33:21;;;;;;;1.30;1.20;;;19.20;43.40;;;;;;5108387;28;20228;-84
2023/05/21 08:35:46;;;;;;;1.30;1.20;;;19.20;43.50;;;;;;5090298;28;20164;-83
2023/05/21 08:38:20;;;;;;;1.20;1.10;;;19.30;43.50;;;;;;5104687;28;20156;-83
2023/05/21 08:40:46;;;;;;;1.58;1.40;;;19.20;43.40;;;;;;5086778;28;20164;-83
2023/05/21 08:43:15;;;;;;;1.75;1.45;;;19.30;43.50;;;;;;5104348;28;20259;-84
2023/05/21 08:45:41;;;;;;;1.75;1.50;;;19.20;43.40;;;;;;5103860;28;20179;-84
2023/05/21 08:48:08;;;;;;;1.52;1.42;;;19.30;43.40;;;;;;5103273;28;20175;-83
2023/05/21 08:50:34;;;;;;;1.70;1.50;;;19.30;43.60;;;;;;5097058;28;20168;-83
2023/05/21 08:53:00;;;;;;;1.45;1.20;;;19.30;43.50;;;;;;5088780;28;20179;-83
2023/05/21 08:55:27;;;;;;;1.52;1.30;;;19.20;43.40;;;;;;5101982;28;20164;-83
2023/05/21 08:57:53;;;;;;;1.48;1.30;;;19.30;43.60;;;;;;5088906;28;20167;-83
2023/05/21 09:00:20;;;;;;;2.15;1.40;;;19.30;43.60;;;;;;5101819;28;20156;-83
2023/05/21 09:02:45;;;;;;;2.35;1.42;;;19.30;43.60;;;;;;5087996;28;20228;-83
2023/05/21 09:05:11;;;;;;;1.55;1.45;;;19.30;43.90;;;;;;5123219;28;20222;-83
2023/05/21 09:08:03;;;;;;;1.40;1.30;;;19.30;44.10;;;;;;5121141;28;20204;-84
2023/05/21 09:10:33;;;;;;;1.85;1.48;;;19.30;44.10;;;;;;5120618;28;20202;-82
2023/05/21 09:12:59;;;;;;;1.50;1.33;;;19.30;44.00;;;;;;5137852;28;20152;-82
2023/05/21 09:15:25;;;;;;;1.38;1.27;;;19.30;44.10;;;;;;5120201;28;20174;-82
2023/05/21 09:17:51;;;;;;;1.42;1.33;;;19.30;44.00;;;;;;5119854;28;20156;-82
2023/05/21 09:20:17;;;;;;;1.52;1.40;;;19.30;43.90;;;;;;5118388;28;20242;-83
2023/05/21 09:22:45;;;;;;;1.60;1.40;;;19.30;44.10;;;;;;5116072;28;20223;-82
2023/05/21 09:25:11;;;;;;;1.42;1.33;;;19.30;44.20;;;;;;5116032;28;20194;-82
2023/05/21 09:27:37;;;;;;;1.65;1.33;;;19.30;44.30;;;;;;5115905;28;20156;-83
2023/05/21 09:30:04;;;;;;;2.28;1.40;;;19.40;44.30;;;;;;5106578;28;20160;-82
2023/05/21 09:32:30;;;;;;;1.52;1.33;;;19.40;44.40;;;;;;5094828;28;20153;-82
2023/05/21 09:34:55;;;;;;;1.40;1.30;;;19.30;44.30;;;;;;5095951;28;20157;-82
2023/05/21 09:37:21;;;;;;;2.25;1.58;;;19.40;44.50;;;;;;5097722;28;20620;-82
2023/05/21 09:39:47;;;;;;;1.30;1.20;;;19.40;44.50;;;;;;5114311;28;20226;-82
2023/05/21 09:42:13;;;;;;;2.13;1.25;;;19.30;44.50;;;;;;5099066;28;20176;-81
2023/05/21 09:44:42;;;;;;;1.40;1.30;;;19.30;44.50;;;;;;5115854;28;20164;-82
2023/05/21 09:47:08;;;;;;;1.73;1.55;;;19.30;45.00;;;;;;5115606;28;20165;-82
2023/05/21 09:49:35;;;;;;;3.00;1.50;;;19.30;44.80;;;;;;5116485;28;20152;-82
2023/05/21 09:52:01;;;;;;;2.28;1.33;;;19.30;45.00;;;;;;5115045;28;20152;-82
2023/05/21 09:54:32;;;;;;;1.55;1.45;;;19.40;45.30;;;;;;5114281;28;20186;-83
2023/05/21 09:57:01;;;;;;;2.33;1.25;;;19.30;45.20;;;;;;5118791;28;20168;-82
2023/05/21 09:59:35;;;;;;;1.23;1.13;;;19.40;45.70;;;;;;5123825;28;20153;-82
2023/05/21 10:02:21;;;;;;;1.85;1.70;;;19.30;45.50;;;;;;5123671;28;20626;-83
2023/05/21 10:04:49;;;;;;;1.50;1.23;;;19.30;45.60;;;;;;5123947;28;20152;-82
2023/05/21 10:07:18;;;;;;;1.40;1.30;;;19.30;45.80;;;;;;5138295;27;20164;-83
2023/05/21 10:09:46;;;;;;;2.05;1.33;;;19.30;46.20;;;;;;5120392;28;20514;-82
2023/05/21 10:12:11;;;;;;;1.30;1.20;;;19.40;46.00;;;;;;5136784;27;20171;-82
2023/05/21 10:14:37;;;;;;;1.40;1.30;;;19.40;46.30;;;;;;5121033;28;20152;-82
2023/05/21 10:17:04;;;;;;;1.92;1.50;;;19.40;46.00;;;;;;5121733;28;20243;-82
2023/05/21 10:19:31;;;;;;;2.08;1.10;;;19.40;46.00;;;;;;5120706;28;20156;-82
2023/05/21 10:21:56;;;;;;;1.40;1.30;;;19.40;46.50;;;;;;5106156;27;20168;-82
2023/05/21 10:24:22;;;;;;;1.40;1.30;;;19.50;46.20;;;;;;5107965;27;20163;-83
2023/05/21 10:26:53;;;;;;;2.95;1.55;;;19.50;46.50;;;;;;5122013;27;20183;-82
2023/05/21 10:29:20;;;;;;;1.45;1.30;;;19.50;46.40;;;;;;5062068;28;20177;-82
2023/05/21 10:31:48;;;;;;;1.40;1.30;;;19.50;46.70;;;;;;5081145;28;20158;-82
2023/05/21 10:34:14;;;;;;;1.58;1.48;;;19.50;46.40;;;;;;5081520;28;20173;-82
2023/05/21 10:36:40;;;;;;;1.50;1.40;;;19.50;46.40;;;;;;5081752;28;20188;-82
2023/05/21 10:39:06;;;;;;;4.05;1.58;;;19.50;46.50;;;;;;5081028;28;20169;-82
2023/05/21 10:41:55;;;;;;;1.48;1.30;;;19.50;46.50;;;;;;5061605;28;20173;-82
2023/05/21 10:44:46;;;;;;;1.40;1.30;;;19.60;46.40;;;;;;5079188;28;20161;-82
2023/05/21 10:47:30;;;;;;;1.38;1.27;;;19.60;46.60;;;;;;5061658;28;20193;-82
2023/05/21 10:50:37;;;;;;;1.45;1.35;;;19.60;46.40;;;;;;5078473;28;20162;-82
2023/05/21 10:53:13;;;;;;;1.55;1.40;;;19.70;46.50;;;;;;5050291;28;20201;-82
2023/05/21 10:56:20;;;;;;;2.65;1.70;;;19.60;46.50;;;;;;5063400;28;20169;-82
2023/05/21 10:59:04;;;;;;;1.90;1.58;;;19.70;46.70;;;;;;5081700;28;20260;-83
2023/05/21 11:01:34;;;;;;;1.40;1.30;;;19.70;46.60;;;;;;5081318;28;20164;-83
2023/05/21 11:04:00;;;;;;;1.65;1.42;;;19.70;46.70;;;;;;5079299;28;20225;-83
2023/05/21 11:06:28;;;;;;;2.63;1.55;;;19.70;46.80;;;;;;5065643;28;20270;-82
2023/05/21 11:08:53;;;;;;;1.90;1.65;;;19.70;46.70;;;;;;5081258;28;20166;-83
2023/05/21 11:11:51;;;;;;;2.78;1.40;;;19.80;46.70;;;;;;5081114;28;20165;-82
2023/05/21 11:14:34;;;;;;;1.85;1.75;;;19.70;46.80;;;;;;5081063;28;20161;-83
2023/05/21 11:17:03;;;;;;;1.50;1.40;;;19.70;46.80;;;;;;5080929;28;20187;-82
2023/05/21 11:19:36;;;;;;;1.63;1.52;;;19.70;47.20;;;;;;5080823;28;20273;-82
2023/05/21 11:22:07;;;;;;;1.50;1.40;;;19.80;47.10;;;;;;5080228;28;20209;-83
2023/05/21 11:24:33;;;;;;;2.03;1.60;;;19.70;47.10;;;;;;5063881;28;20173;-83
2023/05/21 11:27:01;;;;;;;2.13;1.67;;;19.80;47.20;;;;;;5121189;27;20190;-82
2023/05/21 11:29:43;;;;;;;1.50;1.40;;;19.70;47.40;;;;;;5124991;27;20148;-82
2023/05/21 11:32:11;;;;;;;1.60;1.40;;;19.80;47.20;;;;;;5106262;27;20540;-83
2023/05/21 11:34:44;;;;;;;1.65;1.55;;;19.80;47.30;;;;;;5120496;28;20192;-82
2023/05/21 11:37:23;;;;;;;2.28;1.73;;;19.70;47.40;;;;;;5142164;27;20174;-83
2023/05/21 11:39:50;;;;;;;1.42;1.33;;;19.80;47.40;;;;;;5105025;27;20167;-82
2023/05/21 11:42:34;;;;;;;1.70;1.60;;;19.70;47.40;;;;;;5142053;27;20235;-82
2023/05/21 11:45:01;;;;;;;2.80;1.50;;;19.60;47.50;;;;;;5122639;27;20175;-83
2023/05/21 11:47:28;;;;;;;1.65;1.50;;;19.60;47.60;;;;;;5121772;27;20175;-82
2023/05/21 11:49:55;;;;;;;1.60;1.50;;;19.70;47.70;;;;;;5123309;27;20152;-82
2023/05/21 11:52:20;;;;;;;1.45;1.35;;;19.70;48.00;;;;;;5121119;27;20155;-82
2023/05/21 11:54:50;;;;;;;1.75;1.65;;;19.70;47.90;;;;;;5122164;27;20158;-83
2023/05/21 11:57:18;;;;;;;1.60;1.50;;;19.70;48.00;;;;;;5139845;27;20636;-83
2023/05/21 11:59:44;;;;;;;1.75;1.63;;;19.60;48.10;;;;;;5123202;27;20621;-83
2023/05/21 12:02:16;;;;;;;1.92;1.75;;;19.70;48.20;;;;;;5123043;27;20155;-82
2023/05/21 12:04:43;;;;;;;1.77;1.67;;;19.60;48.00;;;;;;5122537;27;20147;-82
2023/05/21 12:07:12;;;;;;;1.52;1.40;;;19.60;48.20;;;;;;5121543;27;20171;-83
2023/05/21 12:09:40;;;;;;;1.70;1.50;;;19.80;48.60;;;;;;5104633;27;20163;-83
2023/05/21 12:12:07;;;;;;;1.45;1.35;;;19.80;48.30;;;;;;5102010;28;20164;-83
2023/05/21 12:14:35;;;;;;;2.17;1.67;;;19.80;48.30;;;;;;5084872;28;20638;-83
2023/05/21 12:17:02;;;;;;;1.60;1.50;;;19.70;48.30;;;;;;5121417;28;20621;-83
2023/05/21 12:19:30;;;;;;;2.10;1.70;;;19.70;48.30;;;;;;5087317;28;20167;-82
2023/05/21 12:21:56;;;;;;;1.80;1.60;;;19.70;48.50;;;;;;5086567;28;20217;-82
2023/05/21 12:24:22;;;;;;;1.63;1.52;;;19.70;48.50;;;;;;5103190;28;20168;-82
2023/05/21 12:26:48;;;;;;;1.50;1.40;;;19.70;48.50;;;;;;5110601;27;20213;-83
2023/05/21 12:29:14;;;;;;;2.85;1.58;;;19.70;48.50;;;;;;5124611;27;20152;-83
2023/05/21 12:31:49;;;;;;;1.83;1.45;;;19.70;48.50;;;;;;5124084;27;20197;-83
2023/05/21 12:34:17;;;;;;;1.73;1.58;;;19.70;48.70;;;;;;5106619;27;20569;-82
2023/05/21 12:36:47;;;;;;;2.05;1.70;;;19.80;48.60;;;;;;5122036;27;20648;-83
2023/05/21 12:39:13;;;;;;;1.88;1.70;;;19.70;48.40;;;;;;5142771;27;20171;-82
2023/05/21 12:41:39;;;;;;;2.05;1.50;;;19.70;48.50;;;;;;5105375;27;20172;-82
2023/05/21 12:44:07;;;;;;;2.00;1.80;;;19.70;48.80;;;;;;5119026;28;20219;-83
2023/05/21 12:46:33;;;;;;;2.40;1.77;;;19.70;48.80;;;;;;5069823;28;20203;-83
2023/05/21 12:48:59;;;;;;;1.60;1.50;;;19.70;48.80;;;;;;5087325;28;20145;-82
2023/05/21 12:51:24;;;;;;;1.73;1.60;;;19.60;48.70;;;;;;5104131;28;20152;-82